Форум клана ЧПУшников

Информация о пользователе

Привет, Гость! Войдите или зарегистрируйтесь.


Вы здесь » Форум клана ЧПУшников » Лазерные станки


Лазерные станки

Тем 281 страница 350 из 412

Тема Ответов Просмотров Последнее сообщение
8 218 14-03-2016 16:51:53  Расулыч
21 5983 13-03-2016 19:24:18  barabaschka09
7 286 10-03-2016 20:36:59  chirik
5 652 07-03-2016 20:32:32  Flint2015
19 1626 04-03-2016 17:27:39  Airside
4 174 29-02-2016 22:43:44  nikson
5 147 27-02-2016 08:50:26  Flint2015
288 Тестирование размера реза  Виктор Краски
9 453 26-02-2016 16:55:55  daguss
289 кривая резка  Восходник
17 434 26-02-2016 00:06:30  semerochka
80 5231 22-02-2016 20:51:36  Kinetic
32 912 22-02-2016 20:11:19  Kinetic
17 809 22-02-2016 12:02:26  Kinetic
30 869 19-02-2016 21:54:44  Rudiarius
5 495 14-02-2016 15:24:59  gabber
7 316 14-02-2016 12:43:54  Zippo
12 361 12-02-2016 17:15:38  Yaroslavl
2 171 12-02-2016 10:23:44  Администратор
22 823 07-02-2016 15:27:40  Imobile
6 289 28-01-2016 17:09:21  StarPOM
25 818 26-01-2016 15:23:58  Zippo
16 545 15-01-2016 04:57:58  Tauhuh
302 Аквапомпа  markaru
7 275 12-01-2016 18:35:57  dm6
3 201 07-01-2016 00:45:42  okruk
4 209 05-01-2016 10:25:43  markaru
12 557 04-01-2016 23:50:27  magicwood2016
6 423 04-01-2016 21:25:36  SDB
307 Нужна помощь специалистов!  Мастер на все руки
30 1084 02-01-2016 20:05:38  racon75
7 182 24-12-2015 12:08:34  lexus80
22 1953 21-12-2015 14:22:31  Kuz
14 327 14-12-2015 15:59:50  YuSTas
8 292 12-12-2015 20:20:10  Shamankiller
15 526 12-12-2015 18:02:39  racon75
7 307 12-12-2015 01:11:17  markaru
38 830 08-12-2015 23:46:50  asor
35 839 08-12-2015 18:35:57  dm6
8 326 07-12-2015 21:25:28  Dimon
25 873 04-12-2015 21:36:10  Silmaril
318 Лазерный станок Kamach II 1280 AS  радион рашитович
4 213 04-12-2015 20:36:20  Airside
4 268 04-12-2015 10:56:16  Drakonstar
9 592 29-11-2015 02:45:00  Лазорез
38 745 27-11-2015 18:12:36  ЫХ-000
41 1223 27-11-2015 12:34:06  Slym
44 1722 22-11-2015 11:50:31  _king_
324 mpc6525 - завис  Dr_dober
2 222 16-11-2015 12:54:39  Dr_dober
5 181 10-11-2015 22:25:27  Прокоп
30 1967 09-11-2015 16:17:15  bort747
1 200 07-11-2015 14:48:03  MobileMan
25 982 04-11-2015 02:04:57  tok17
34 1860 29-10-2015 20:36:56  YuSTas
330 Гравивовка на iPhone  Максим1975
9 569 28-10-2015 12:02:57  Восходник
44 907 25-10-2015 16:54:39  tok17
3 228 25-10-2015 11:20:20  Фёдор Соколов
12 616 24-10-2015 11:53:29  yri71
22 1588 21-10-2015 23:59:06  dmitrymi
10 627 20-10-2015 16:04:37  YuSTas
2 83 20-10-2015 15:35:36  Kuz
6 216 15-10-2015 09:36:29  Валерия-206
3 179 13-10-2015 11:20:10  Kuz
1 140 06-10-2015 16:34:03  coolmail
4 332 03-10-2015 18:53:54  kotbarsuk
29 894 30-09-2015 12:07:02  olejah
9 361 28-09-2015 04:25:16  BlackOx
343 Расфокусировка  Прокоп
8 281 24-09-2015 20:30:02  Прокоп
14 350 24-09-2015 20:07:38  Lord
6 204 23-09-2015 08:43:57  Airside
3 113 22-09-2015 17:06:12  PalSecam
3 109 22-09-2015 14:56:27  PalSecam
2 153 16-09-2015 22:31:09  Артем-70
35 466 04-09-2015 12:04:29  ecto
5 230 02-09-2015 16:35:06  Halkin

Вы здесь » Форум клана ЧПУшников » Лазерные станки